createdAt,value
2018-08-19T00:07:44.299Z,28.40
2018-08-19T00:17:48.149Z,28.40
2018-08-19T00:27:51.285Z,28.40
2018-08-19T00:37:55.158Z,28.42
2018-08-19T00:47:58.844Z,28.41
2018-08-19T00:58:01.882Z,28.41
2018-08-19T01:08:05.129Z,28.40
2018-08-19T01:18:08.549Z,28.40
2018-08-19T01:28:11.706Z,28.37
2018-08-19T01:38:14.879Z,28.39
2018-08-19T01:48:18.775Z,28.36
2018-08-19T01:58:22.415Z,28.38
2018-08-19T02:08:25.985Z,28.38
2018-08-19T02:18:30.549Z,28.37
2018-08-19T02:28:33.927Z,28.36
2018-08-19T02:38:38.280Z,28.33
2018-08-19T02:48:46.058Z,28.33
2018-08-19T02:58:49.621Z,28.33
2018-08-19T03:08:59.874Z,28.35
2018-08-19T03:19:03.327Z,28.33
2018-08-19T03:29:14.579Z,28.29
2018-08-19T03:39:18.139Z,28.30
2018-08-19T03:49:22.641Z,28.33
2018-08-19T03:59:26.511Z,28.33
2018-08-19T04:09:29.655Z,28.34
2018-08-19T04:19:33.979Z,28.34
2018-08-19T04:29:38.142Z,28.30
2018-08-19T04:39:42.489Z,28.33
2018-08-19T04:49:45.458Z,28.36
2018-08-19T04:59:49.685Z,28.34
2018-08-19T05:09:52.825Z,28.32
2018-08-19T05:20:11.388Z,28.31
2018-08-19T05:30:14.379Z,28.35
2018-08-19T05:40:18.290Z,28.35
2018-08-19T05:50:21.794Z,28.36
2018-08-19T06:00:28.174Z,28.35
2018-08-19T06:10:31.987Z,28.38
2018-08-19T06:20:35.905Z,26.65
2018-08-19T06:30:38.997Z,27.05
2018-08-19T06:40:42.253Z,26.88
2018-08-19T06:50:45.255Z,27.02
2018-08-19T07:00:48.428Z,26.69
2018-08-19T07:10:51.596Z,26.37
2018-08-19T07:20:54.799Z,26.82
2018-08-19T07:30:57.833Z,26.60
2018-08-19T07:41:00.958Z,27.22
2018-08-19T07:51:04.180Z,26.93
2018-08-19T08:01:07.261Z,26.91
2018-08-19T08:11:10.386Z,27.32
2018-08-19T08:21:14.898Z,27.85
2018-08-19T08:31:17.952Z,27.96
2018-08-19T08:41:21.023Z,27.96
2018-08-19T08:51:24.186Z,28.20
2018-08-19T09:01:27.323Z,28.41
2018-08-19T09:11:30.504Z,28.52
2018-08-19T09:21:33.558Z,28.48
2018-08-19T09:31:36.622Z,28.58
2018-08-19T09:41:39.746Z,28.75
2018-08-19T09:51:42.835Z,28.77
2018-08-19T10:01:47.025Z,28.99
2018-08-19T10:11:50.149Z,29.08
2018-08-19T10:21:53.497Z,29.05
2018-08-19T10:31:59.014Z,29.01
2018-08-19T10:42:20.238Z,29.04
2018-08-19T10:52:26.813Z,29.03
2018-08-19T11:02:30.010Z,29.11
2018-08-19T11:12:33.210Z,29.25
2018-08-19T11:22:36.245Z,29.13
2018-08-19T11:32:39.513Z,29.29
2018-08-19T11:42:42.579Z,29.17
2018-08-19T11:52:49.894Z,29.28
2018-08-19T12:02:52.910Z,29.34
2018-08-19T12:12:56.185Z,29.46
2018-08-19T12:22:59.291Z,29.47
2018-08-19T12:33:14.058Z,29.55
2018-08-19T12:43:17.185Z,29.58
2018-08-19T12:53:20.654Z,29.56
2018-08-19T13:03:26.407Z,29.60
2018-08-19T13:13:29.464Z,29.58
2018-08-19T13:23:32.754Z,29.61
2018-08-19T13:33:35.961Z,29.68
2018-08-19T13:43:39.148Z,29.69
2018-08-19T13:53:42.748Z,29.67
2018-08-19T14:03:45.785Z,29.68
2018-08-19T14:13:48.993Z,29.71
2018-08-19T14:23:52.080Z,29.72
2018-08-19T14:33:55.297Z,29.71
2018-08-19T14:44:02.532Z,29.75
2018-08-19T14:54:20.313Z,29.69
2018-08-19T15:04:23.534Z,29.79
2018-08-19T15:14:26.566Z,29.87
2018-08-19T15:24:29.757Z,30.05
2018-08-19T15:34:32.233Z,29.81
2018-08-19T15:44:34.739Z,29.87
2018-08-19T15:54:37.426Z,29.86
2018-08-19T16:04:39.936Z,29.79
2018-08-19T16:14:42.342Z,29.77
2018-08-19T16:24:44.777Z,29.73
2018-08-19T16:34:47.154Z,29.71
2018-08-19T16:44:49.729Z,29.75
2018-08-19T16:54:51.918Z,29.79
2018-08-19T17:04:54.278Z,29.72
2018-08-19T17:14:56.895Z,29.63
2018-08-19T17:25:00.026Z,29.67
2018-08-19T17:35:03.006Z,29.73
2018-08-19T17:45:06.101Z,29.55
2018-08-19T17:55:10.939Z,29.55
2018-08-19T18:05:13.370Z,29.56
2018-08-19T18:15:16.069Z,29.47
2018-08-19T18:25:18.480Z,29.41
2018-08-19T18:35:21.813Z,29.40
2018-08-19T18:45:24.537Z,29.36
2018-08-19T18:55:27.237Z,29.22
2018-08-19T19:05:30.423Z,29.14
2018-08-19T19:15:36.857Z,29.14
2018-08-19T19:25:40.980Z,28.97
2018-08-19T19:35:43.549Z,28.85
2018-08-19T19:45:53.675Z,29.17
2018-08-19T19:56:01.521Z,28.94
2018-08-19T20:06:04.494Z,28.88
2018-08-19T20:16:07.027Z,29.10
2018-08-19T20:26:10.144Z,28.97
2018-08-19T20:36:12.831Z,28.95
2018-08-19T20:46:16.244Z,28.94
2018-08-19T20:56:18.739Z,28.94
2018-08-19T21:16:31.589Z,28.91
2018-08-19T21:26:35.025Z,28.90
2018-08-19T21:36:37.600Z,28.89
2018-08-19T21:46:40.240Z,28.86
2018-08-19T21:56:43.336Z,28.86
2018-08-19T22:06:45.743Z,28.83
2018-08-19T22:16:48.997Z,28.82
2018-08-19T22:26:52.061Z,28.84
2018-08-19T22:36:55.117Z,28.81
2018-08-19T22:46:58.262Z,28.78
2018-08-19T22:57:01.542Z,28.78
2018-08-19T23:07:04.241Z,28.77
2018-08-19T23:17:07.003Z,28.73
2018-08-19T23:27:09.404Z,28.70
2018-08-19T23:37:12.016Z,28.74
2018-08-19T23:47:16.927Z,28.74
2018-08-19T23:57:19.560Z,28.70
